sensor_id;sensor_type;location;lat;lon;timestamp;P1;durP1;ratioP1;P2;durP2;ratioP2
71856;SDS011;63344;46.980;28.882;2022-11-27T00:01:29;23.15;;;8.45;;
71856;SDS011;63344;46.980;28.882;2022-11-27T00:03:57;24.45;;;8.60;;
71856;SDS011;63344;46.980;28.882;2022-11-27T00:06:26;21.98;;;8.60;;
71856;SDS011;63344;46.980;28.882;2022-11-27T00:08:55;32.28;;;11.48;;
71856;SDS011;63344;46.980;28.882;2022-11-27T00:11:24;24.85;;;10.10;;
71856;SDS011;63344;46.980;28.882;2022-11-27T00:13:52;30.45;;;11.13;;
71856;SDS011;63344;46.980;28.882;2022-11-27T00:16:20;22.60;;;9.13;;
71856;SDS011;63344;46.980;28.882;2022-11-27T00:18:48;26.73;;;10.25;;
71856;SDS011;63344;46.980;28.882;2022-11-27T00:21:21;32.67;;;11.57;;
71856;SDS011;63344;46.980;28.882;2022-11-27T00:23:50;24.45;;;9.80;;
71856;SDS011;63344;46.980;28.882;2022-11-27T00:26:20;21.40;;;10.27;;
71856;SDS011;63344;46.980;28.882;2022-11-27T00:28:48;26.75;;;9.60;;
71856;SDS011;63344;46.980;28.882;2022-11-27T00:31:18;27.83;;;11.45;;
71856;SDS011;63344;46.980;28.882;2022-11-27T00:33:47;32.50;;;11.77;;
71856;SDS011;63344;46.980;28.882;2022-11-27T00:36:15;26.73;;;11.70;;
71856;SDS011;63344;46.980;28.882;2022-11-27T00:38:42;29.17;;;10.80;;
71856;SDS011;63344;46.980;28.882;2022-11-27T00:41:11;29.52;;;10.93;;
71856;SDS011;63344;46.980;28.882;2022-11-27T00:43:44;21.50;;;9.15;;
71856;SDS011;63344;46.980;28.882;2022-11-27T00:46:13;29.67;;;11.05;;
71856;SDS011;63344;46.980;28.882;2022-11-27T00:48:41;29.45;;;12.48;;
71856;SDS011;63344;46.980;28.882;2022-11-27T00:51:11;23.77;;;10.25;;
71856;SDS011;63344;46.980;28.882;2022-11-27T00:53:40;22.23;;;9.60;;
71856;SDS011;63344;46.980;28.882;2022-11-27T00:56:09;30.00;;;11.52;;
71856;SDS011;63344;46.980;28.882;2022-11-27T00:58:47;25.92;;;10.05;;
71856;SDS011;63344;46.980;28.882;2022-11-27T01:01:22;32.10;;;10.93;;
71856;SDS011;63344;46.980;28.882;2022-11-27T01:03:53;25.05;;;10.25;;
71856;SDS011;63344;46.980;28.882;2022-11-27T01:06:23;24.85;;;9.98;;
71856;SDS011;63344;46.980;28.882;2022-11-27T01:08:50;28.30;;;10.88;;
71856;SDS011;63344;46.980;28.882;2022-11-27T01:11:19;26.38;;;10.40;;
71856;SDS011;63344;46.980;28.882;2022-11-27T01:13:48;26.65;;;10.73;;
71856;SDS011;63344;46.980;28.882;2022-11-27T01:16:17;30.80;;;12.30;;
71856;SDS011;63344;46.980;28.882;2022-11-27T01:18:46;28.90;;;12.05;;
71856;SDS011;63344;46.980;28.882;2022-11-27T01:21:17;29.25;;;9.45;;
71856;SDS011;63344;46.980;28.882;2022-11-27T01:23:45;30.95;;;11.90;;
71856;SDS011;63344;46.980;28.882;2022-11-27T01:26:15;30.65;;;10.68;;
71856;SDS011;63344;46.980;28.882;2022-11-27T01:28:45;30.60;;;11.77;;
71856;SDS011;63344;46.980;28.882;2022-11-27T01:31:15;31.83;;;10.77;;
71856;SDS011;63344;46.980;28.882;2022-11-27T01:33:49;20.27;;;9.00;;
71856;SDS011;63344;46.980;28.882;2022-11-27T01:36:22;21.75;;;8.75;;
71856;SDS011;63344;46.980;28.882;2022-11-27T01:38:50;31.45;;;11.82;;
71856;SDS011;63344;46.980;28.882;2022-11-27T01:44:45;25.30;;;10.02;;
71856;SDS011;63344;46.980;28.882;2022-11-27T01:47:01;23.05;;;10.15;;
71856;SDS011;63344;46.980;28.882;2022-11-27T01:52:10;33.80;;;12.27;;
71856;SDS011;63344;46.980;28.882;2022-11-27T01:57:17;14.88;;;6.03;;
71856;SDS011;63344;46.980;28.882;2022-11-27T01:59:48;20.55;;;9.02;;
71856;SDS011;63344;46.980;28.882;2022-11-27T02:02:18;25.88;;;11.13;;
71856;SDS011;63344;46.980;28.882;2022-11-27T02:04:45;24.52;;;8.70;;
71856;SDS011;63344;46.980;28.882;2022-11-27T02:07:12;26.50;;;10.52;;
71856;SDS011;63344;46.980;28.882;2022-11-27T02:09:39;25.88;;;9.98;;
71856;SDS011;63344;46.980;28.882;2022-11-27T02:14:46;18.25;;;7.38;;
71856;SDS011;63344;46.980;28.882;2022-11-27T02:17:24;19.15;;;7.35;;
71856;SDS011;63344;46.980;28.882;2022-11-27T02:23:04;22.30;;;8.95;;
71856;SDS011;63344;46.980;28.882;2022-11-27T02:31:42;24.40;;;8.93;;
71856;SDS011;63344;46.980;28.882;2022-11-27T02:37:02;27.08;;;9.38;;
71856;SDS011;63344;46.980;28.882;2022-11-27T02:39:41;18.10;;;7.53;;
71856;SDS011;63344;46.980;28.882;2022-11-27T02:42:17;24.05;;;9.35;;
71856;SDS011;63344;46.980;28.882;2022-11-27T02:45:06;20.08;;;7.95;;
71856;SDS011;63344;46.980;28.882;2022-11-27T02:47:38;18.52;;;7.65;;
71856;SDS011;63344;46.980;28.882;2022-11-27T02:50:11;23.88;;;10.00;;
71856;SDS011;63344;46.980;28.882;2022-11-27T02:52:49;23.30;;;8.93;;
71856;SDS011;63344;46.980;28.882;2022-11-27T02:55:22;23.20;;;8.90;;
71856;SDS011;63344;46.980;28.882;2022-11-27T02:57:52;22.15;;;8.93;;
71856;SDS011;63344;46.980;28.882;2022-11-27T03:00:22;19.25;;;7.70;;
71856;SDS011;63344;46.980;28.882;2022-11-27T03:02:54;24.05;;;8.75;;
71856;SDS011;63344;46.980;28.882;2022-11-27T03:05:27;25.88;;;8.90;;
71856;SDS011;63344;46.980;28.882;2022-11-27T03:08:45;20.27;;;7.93;;
71856;SDS011;63344;46.980;28.882;2022-11-27T03:13:38;21.95;;;8.60;;
71856;SDS011;63344;46.980;28.882;2022-11-27T03:21:49;22.00;;;8.82;;
71856;SDS011;63344;46.980;28.882;2022-11-27T03:24:19;25.13;;;8.50;;
71856;SDS011;63344;46.980;28.882;2022-11-27T03:26:47;22.42;;;8.98;;
71856;SDS011;63344;46.980;28.882;2022-11-27T03:29:26;23.67;;;9.23;;
71856;SDS011;63344;46.980;28.882;2022-11-27T03:31:57;22.23;;;8.07;;
71856;SDS011;63344;46.980;28.882;2022-11-27T03:34:24;20.80;;;7.07;;
71856;SDS011;63344;46.980;28.882;2022-11-27T03:36:52;23.55;;;8.73;;
71856;SDS011;63344;46.980;28.882;2022-11-27T03:39:19;20.95;;;7.70;;
71856;SDS011;63344;46.980;28.882;2022-11-27T03:55:49;23.00;;;7.45;;
71856;SDS011;63344;46.980;28.882;2022-11-27T04:01:15;19.17;;;6.75;;
71856;SDS011;63344;46.980;28.882;2022-11-27T04:03:47;20.42;;;6.88;;
71856;SDS011;63344;46.980;28.882;2022-11-27T04:06:14;21.17;;;7.80;;
71856;SDS011;63344;46.980;28.882;2022-11-27T04:08:46;18.42;;;7.35;;
71856;SDS011;63344;46.980;28.882;2022-11-27T04:11:14;13.75;;;5.80;;
71856;SDS011;63344;46.980;28.882;2022-11-27T04:13:42;18.98;;;6.40;;
71856;SDS011;63344;46.980;28.882;2022-11-27T04:16:09;17.48;;;6.40;;
71856;SDS011;63344;46.980;28.882;2022-11-27T04:18:36;13.43;;;5.38;;
71856;SDS011;63344;46.980;28.882;2022-11-27T04:21:03;18.40;;;7.25;;
71856;SDS011;63344;46.980;28.882;2022-11-27T04:23:31;18.13;;;7.25;;
71856;SDS011;63344;46.980;28.882;2022-11-27T04:25:58;9.85;;;3.97;;
71856;SDS011;63344;46.980;28.882;2022-11-27T04:28:25;16.42;;;7.13;;
71856;SDS011;63344;46.980;28.882;2022-11-27T04:30:53;14.95;;;4.82;;
71856;SDS011;63344;46.980;28.882;2022-11-27T04:33:21;16.08;;;5.78;;
71856;SDS011;63344;46.980;28.882;2022-11-27T04:35:51;14.98;;;6.10;;
71856;SDS011;63344;46.980;28.882;2022-11-27T04:38:19;13.82;;;5.15;;
71856;SDS011;63344;46.980;28.882;2022-11-27T04:40:47;16.15;;;7.25;;
71856;SDS011;63344;46.980;28.882;2022-11-27T04:43:17;14.25;;;6.00;;
71856;SDS011;63344;46.980;28.882;2022-11-27T04:45:45;10.98;;;4.93;;
71856;SDS011;63344;46.980;28.882;2022-11-27T04:48:28;18.63;;;6.80;;
71856;SDS011;63344;46.980;28.882;2022-11-27T04:50:55;12.40;;;4.15;;
71856;SDS011;63344;46.980;28.882;2022-11-27T04:56:12;8.75;;;4.00;;
71856;SDS011;63344;46.980;28.882;2022-11-27T04:58:39;13.15;;;5.30;;
71856;SDS011;63344;46.980;28.882;2022-11-27T05:01:07;14.70;;;6.60;;
71856;SDS011;63344;46.980;28.882;2022-11-27T05:03:38;13.30;;;5.47;;
71856;SDS011;63344;46.980;28.882;2022-11-27T05:06:05;13.27;;;5.65;;
71856;SDS011;63344;46.980;28.882;2022-11-27T05:08:33;10.60;;;4.15;;
71856;SDS011;63344;46.980;28.882;2022-11-27T05:13:44;12.02;;;5.63;;
71856;SDS011;63344;46.980;28.882;2022-11-27T05:16:11;13.82;;;6.43;;
71856;SDS011;63344;46.980;28.882;2022-11-27T05:18:38;16.33;;;6.18;;
71856;SDS011;63344;46.980;28.882;2022-11-27T05:21:08;12.32;;;5.32;;
71856;SDS011;63344;46.980;28.882;2022-11-27T05:23:38;12.10;;;4.97;;
71856;SDS011;63344;46.980;28.882;2022-11-27T05:26:06;13.52;;;4.78;;
71856;SDS011;63344;46.980;28.882;2022-11-27T05:28:38;18.13;;;6.85;;
71856;SDS011;63344;46.980;28.882;2022-11-27T05:31:22;13.93;;;5.63;;
71856;SDS011;63344;46.980;28.882;2022-11-27T05:33:50;6.93;;;2.70;;
71856;SDS011;63344;46.980;28.882;2022-11-27T05:36:19;16.30;;;6.30;;
71856;SDS011;63344;46.980;28.882;2022-11-27T05:39:12;16.17;;;5.60;;
71856;SDS011;63344;46.980;28.882;2022-11-27T05:41:47;10.45;;;4.50;;
71856;SDS011;63344;46.980;28.882;2022-11-27T05:44:14;7.43;;;4.28;;
71856;SDS011;63344;46.980;28.882;2022-11-27T05:46:42;6.65;;;3.00;;
71856;SDS011;63344;46.980;28.882;2022-11-27T05:49:12;16.52;;;6.80;;
71856;SDS011;63344;46.980;28.882;2022-11-27T05:51:41;12.35;;;5.40;;
71856;SDS011;63344;46.980;28.882;2022-11-27T05:54:16;12.55;;;5.38;;
71856;SDS011;63344;46.980;28.882;2022-11-27T05:56:44;13.07;;;5.30;;
71856;SDS011;63344;46.980;28.882;2022-11-27T05:59:11;18.98;;;6.15;;
71856;SDS011;63344;46.980;28.882;2022-11-27T06:01:39;12.45;;;5.13;;
71856;SDS011;63344;46.980;28.882;2022-11-27T06:04:06;16.13;;;6.65;;
71856;SDS011;63344;46.980;28.882;2022-11-27T06:06:33;17.65;;;6.35;;
71856;SDS011;63344;46.980;28.882;2022-11-27T06:09:01;14.35;;;5.88;;
71856;SDS011;63344;46.980;28.882;2022-11-27T06:11:31;13.52;;;5.00;;
71856;SDS011;63344;46.980;28.882;2022-11-27T06:13:58;17.48;;;7.75;;
71856;SDS011;63344;46.980;28.882;2022-11-27T06:16:26;14.27;;;5.80;;
71856;SDS011;63344;46.980;28.882;2022-11-27T06:18:53;8.25;;;3.72;;
71856;SDS011;63344;46.980;28.882;2022-11-27T06:21:22;15.73;;;6.22;;
71856;SDS011;63344;46.980;28.882;2022-11-27T06:23:53;16.30;;;6.53;;
71856;SDS011;63344;46.980;28.882;2022-11-27T06:26:25;14.13;;;6.28;;
71856;SDS011;63344;46.980;28.882;2022-11-27T06:28:54;9.10;;;4.30;;
71856;SDS011;63344;46.980;28.882;2022-11-27T06:31:24;15.15;;;6.10;;
71856;SDS011;63344;46.980;28.882;2022-11-27T06:33:55;13.95;;;6.07;;
71856;SDS011;63344;46.980;28.882;2022-11-27T06:36:24;12.60;;;5.75;;
71856;SDS011;63344;46.980;28.882;2022-11-27T06:38:54;15.48;;;5.50;;
71856;SDS011;63344;46.980;28.882;2022-11-27T06:41:25;16.67;;;6.70;;
71856;SDS011;63344;46.980;28.882;2022-11-27T06:43:54;15.98;;;7.15;;
71856;SDS011;63344;46.980;28.882;2022-11-27T06:46:27;14.77;;;5.53;;
71856;SDS011;63344;46.980;28.882;2022-11-27T06:48:57;14.55;;;5.78;;
71856;SDS011;63344;46.980;28.882;2022-11-27T06:51:28;11.07;;;5.28;;
71856;SDS011;63344;46.980;28.882;2022-11-27T06:53:58;11.55;;;5.78;;
71856;SDS011;63344;46.980;28.882;2022-11-27T06:56:28;14.13;;;5.13;;
71856;SDS011;63344;46.980;28.882;2022-11-27T06:58:58;12.15;;;5.07;;
71856;SDS011;63344;46.980;28.882;2022-11-27T07:01:29;10.75;;;5.00;;
71856;SDS011;63344;46.980;28.882;2022-11-27T07:03:59;18.65;;;5.75;;
71856;SDS011;63344;46.980;28.882;2022-11-27T07:06:27;13.05;;;5.95;;
71856;SDS011;63344;46.980;28.882;2022-11-27T07:08:54;11.77;;;4.90;;
71856;SDS011;63344;46.980;28.882;2022-11-27T07:11:23;14.50;;;5.63;;
71856;SDS011;63344;46.980;28.882;2022-11-27T07:13:53;10.07;;;4.82;;
71856;SDS011;63344;46.980;28.882;2022-11-27T07:16:23;11.73;;;5.25;;
71856;SDS011;63344;46.980;28.882;2022-11-27T07:18:52;10.60;;;4.78;;
71856;SDS011;63344;46.980;28.882;2022-11-27T07:21:21;10.50;;;3.78;;
71856;SDS011;63344;46.980;28.882;2022-11-27T07:23:49;12.43;;;5.38;;
71856;SDS011;63344;46.980;28.882;2022-11-27T07:26:18;10.88;;;4.45;;
71856;SDS011;63344;46.980;28.882;2022-11-27T07:29:04;11.00;;;4.25;;
71856;SDS011;63344;46.980;28.882;2022-11-27T07:31:41;8.27;;;4.60;;
71856;SDS011;63344;46.980;28.882;2022-11-27T07:34:08;15.52;;;6.03;;
71856;SDS011;63344;46.980;28.882;2022-11-27T07:36:46;16.00;;;5.80;;
71856;SDS011;63344;46.980;28.882;2022-11-27T07:39:15;14.25;;;6.45;;
71856;SDS011;63344;46.980;28.882;2022-11-27T07:42:02;15.40;;;5.75;;
71856;SDS011;63344;46.980;28.882;2022-11-27T07:45:06;11.88;;;5.28;;
71856;SDS011;63344;46.980;28.882;2022-11-27T07:47:49;12.98;;;5.88;;
71856;SDS011;63344;46.980;28.882;2022-11-27T07:50:16;12.68;;;4.85;;
71856;SDS011;63344;46.980;28.882;2022-11-27T07:52:46;12.75;;;5.80;;
71856;SDS011;63344;46.980;28.882;2022-11-27T07:55:42;16.85;;;5.88;;
71856;SDS011;63344;46.980;28.882;2022-11-27T07:58:57;11.25;;;5.05;;
71856;SDS011;63344;46.980;28.882;2022-11-27T08:04:12;16.33;;;6.35;;
71856;SDS011;63344;46.980;28.882;2022-11-27T08:06:48;12.00;;;5.47;;
71856;SDS011;63344;46.980;28.882;2022-11-27T08:10:03;11.38;;;4.68;;
71856;SDS011;63344;46.980;28.882;2022-11-27T08:12:31;11.07;;;4.75;;
71856;SDS011;63344;46.980;28.882;2022-11-27T08:14:59;11.48;;;4.75;;
71856;SDS011;63344;46.980;28.882;2022-11-27T08:17:28;12.65;;;5.70;;
71856;SDS011;63344;46.980;28.882;2022-11-27T08:19:57;10.57;;;5.00;;
71856;SDS011;63344;46.980;28.882;2022-11-27T08:22:27;14.68;;;5.38;;
71856;SDS011;63344;46.980;28.882;2022-11-27T08:24:54;15.48;;;5.85;;
71856;SDS011;63344;46.980;28.882;2022-11-27T08:27:22;12.07;;;5.60;;
71856;SDS011;63344;46.980;28.882;2022-11-27T08:29:49;13.02;;;5.50;;
71856;SDS011;63344;46.980;28.882;2022-11-27T08:32:17;8.25;;;4.15;;
71856;SDS011;63344;46.980;28.882;2022-11-27T08:34:45;8.45;;;4.03;;
71856;SDS011;63344;46.980;28.882;2022-11-27T08:37:13;10.13;;;3.88;;
71856;SDS011;63344;46.980;28.882;2022-11-27T08:39:48;10.27;;;4.82;;
71856;SDS011;63344;46.980;28.882;2022-11-27T08:42:18;9.93;;;4.85;;
71856;SDS011;63344;46.980;28.882;2022-11-27T08:44:49;9.13;;;4.15;;
71856;SDS011;63344;46.980;28.882;2022-11-27T08:47:17;8.73;;;3.70;;
71856;SDS011;63344;46.980;28.882;2022-11-27T08:49:44;9.18;;;3.58;;
71856;SDS011;63344;46.980;28.882;2022-11-27T08:52:13;8.18;;;3.65;;
71856;SDS011;63344;46.980;28.882;2022-11-27T08:54:40;10.02;;;4.15;;
71856;SDS011;63344;46.980;28.882;2022-11-27T08:57:08;10.18;;;3.78;;
71856;SDS011;63344;46.980;28.882;2022-11-27T08:59:35;7.70;;;3.50;;
71856;SDS011;63344;46.980;28.882;2022-11-27T09:02:02;11.57;;;4.68;;
71856;SDS011;63344;46.980;28.882;2022-11-27T09:04:29;12.00;;;5.35;;
71856;SDS011;63344;46.980;28.882;2022-11-27T09:06:57;11.15;;;5.68;;
71856;SDS011;63344;46.980;28.882;2022-11-27T09:09:27;13.18;;;4.50;;
71856;SDS011;63344;46.980;28.882;2022-11-27T09:11:55;9.60;;;4.47;;
71856;SDS011;63344;46.980;28.882;2022-11-27T09:14:23;10.50;;;4.18;;
71856;SDS011;63344;46.980;28.882;2022-11-27T09:16:51;8.68;;;3.90;;
71856;SDS011;63344;46.980;28.882;2022-11-27T09:19:20;5.97;;;3.08;;
71856;SDS011;63344;46.980;28.882;2022-11-27T09:21:48;11.10;;;4.93;;
71856;SDS011;63344;46.980;28.882;2022-11-27T09:24:31;11.65;;;4.72;;
71856;SDS011;63344;46.980;28.882;2022-11-27T09:27:00;12.40;;;5.93;;
71856;SDS011;63344;46.980;28.882;2022-11-27T09:29:27;10.88;;;4.88;;
71856;SDS011;63344;46.980;28.882;2022-11-27T09:32:10;12.02;;;4.80;;
71856;SDS011;63344;46.980;28.882;2022-11-27T09:34:38;5.55;;;3.33;;
71856;SDS011;63344;46.980;28.882;2022-11-27T09:37:06;11.23;;;5.18;;
71856;SDS011;63344;46.980;28.882;2022-11-27T09:39:35;13.38;;;4.90;;
71856;SDS011;63344;46.980;28.882;2022-11-27T09:42:03;11.63;;;5.50;;
71856;SDS011;63344;46.980;28.882;2022-11-27T09:44:56;13.18;;;6.28;;
71856;SDS011;63344;46.980;28.882;2022-11-27T09:50:12;10.73;;;4.97;;
71856;SDS011;63344;46.980;28.882;2022-11-27T09:52:51;14.45;;;5.57;;
71856;SDS011;63344;46.980;28.882;2022-11-27T09:55:36;8.07;;;4.00;;
71856;SDS011;63344;46.980;28.882;2022-11-27T09:58:14;9.82;;;4.45;;
71856;SDS011;63344;46.980;28.882;2022-11-27T10:00:48;13.15;;;5.68;;
71856;SDS011;63344;46.980;28.882;2022-11-27T10:03:17;12.38;;;5.13;;
71856;SDS011;63344;46.980;28.882;2022-11-27T10:25:37;11.15;;;5.50;;
71856;SDS011;63344;46.980;28.882;2022-11-27T10:28:25;12.00;;;5.63;;
71856;SDS011;63344;46.980;28.882;2022-11-27T10:36:52;10.07;;;4.68;;
71856;SDS011;63344;46.980;28.882;2022-11-27T10:39:41;10.80;;;4.85;;
71856;SDS011;63344;46.980;28.882;2022-11-27T10:45:02;11.27;;;5.47;;
71856;SDS011;63344;46.980;28.882;2022-11-27T10:47:33;12.75;;;5.25;;
71856;SDS011;63344;46.980;28.882;2022-11-27T10:50:00;10.07;;;5.00;;
71856;SDS011;63344;46.980;28.882;2022-11-27T10:52:27;11.18;;;5.15;;
71856;SDS011;63344;46.980;28.882;2022-11-27T10:54:56;7.80;;;3.85;;
71856;SDS011;63344;46.980;28.882;2022-11-27T11:02:59;9.60;;;4.60;;
71856;SDS011;63344;46.980;28.882;2022-11-27T11:05:28;11.18;;;4.90;;
71856;SDS011;63344;46.980;28.882;2022-11-27T11:08:17;11.10;;;5.22;;
71856;SDS011;63344;46.980;28.882;2022-11-27T11:11:23;11.63;;;6.05;;
71856;SDS011;63344;46.980;28.882;2022-11-27T11:13:54;14.93;;;6.15;;
71856;SDS011;63344;46.980;28.882;2022-11-27T11:16:23;14.55;;;5.88;;
71856;SDS011;63344;46.980;28.882;2022-11-27T11:19:01;12.13;;;5.90;;
71856;SDS011;63344;46.980;28.882;2022-11-27T11:21:33;12.85;;;5.13;;
71856;SDS011;63344;46.980;28.882;2022-11-27T11:24:05;12.88;;;5.32;;
71856;SDS011;63344;46.980;28.882;2022-11-27T11:26:40;11.27;;;5.72;;
71856;SDS011;63344;46.980;28.882;2022-11-27T11:32:31;13.55;;;5.15;;
71856;SDS011;63344;46.980;28.882;2022-11-27T11:35:08;16.02;;;6.47;;
71856;SDS011;63344;46.980;28.882;2022-11-27T11:37:49;14.25;;;5.97;;
71856;SDS011;63344;46.980;28.882;2022-11-27T11:42:53;9.35;;;4.00;;
71856;SDS011;63344;46.980;28.882;2022-11-27T11:45:25;10.85;;;5.75;;
71856;SDS011;63344;46.980;28.882;2022-11-27T11:48:14;8.50;;;3.75;;
71856;SDS011;63344;46.980;28.882;2022-11-27T11:50:51;10.82;;;5.05;;
71856;SDS011;63344;46.980;28.882;2022-11-27T11:59:06;17.17;;;7.13;;
71856;SDS011;63344;46.980;28.882;2022-11-27T12:16:05;14.45;;;5.90;;
71856;SDS011;63344;46.980;28.882;2022-11-27T12:21:23;15.02;;;6.75;;
71856;SDS011;63344;46.980;28.882;2022-11-27T12:29:36;15.93;;;6.88;;
71856;SDS011;63344;46.980;28.882;2022-11-27T12:35:18;14.32;;;5.78;;
71856;SDS011;63344;46.980;28.882;2022-11-27T12:38:02;16.73;;;6.43;;
71856;SDS011;63344;46.980;28.882;2022-11-27T12:43:42;10.93;;;5.30;;
71856;SDS011;63344;46.980;28.882;2022-11-27T12:46:23;14.45;;;6.22;;
71856;SDS011;63344;46.980;28.882;2022-11-27T12:48:58;14.80;;;6.05;;
71856;SDS011;63344;46.980;28.882;2022-11-27T12:57:05;14.40;;;6.47;;
71856;SDS011;63344;46.980;28.882;2022-11-27T12:59:42;13.93;;;5.75;;
71856;SDS011;63344;46.980;28.882;2022-11-27T13:02:33;16.45;;;6.90;;
71856;SDS011;63344;46.980;28.882;2022-11-27T13:05:13;16.98;;;6.95;;
71856;SDS011;63344;46.980;28.882;2022-11-27T13:07:53;15.57;;;6.40;;
71856;SDS011;63344;46.980;28.882;2022-11-27T13:10:33;15.82;;;6.22;;
71856;SDS011;63344;46.980;28.882;2022-11-27T13:13:25;15.18;;;5.93;;
71856;SDS011;63344;46.980;28.882;2022-11-27T13:15:59;16.05;;;7.63;;
71856;SDS011;63344;46.980;28.882;2022-11-27T13:18:58;19.08;;;8.00;;
71856;SDS011;63344;46.980;28.882;2022-11-27T13:21:34;16.23;;;7.10;;
71856;SDS011;63344;46.980;28.882;2022-11-27T13:24:08;19.90;;;8.63;;
71856;SDS011;63344;46.980;28.882;2022-11-27T13:29:37;16.27;;;7.25;;
71856;SDS011;63344;46.980;28.882;2022-11-27T13:32:18;17.00;;;7.53;;
71856;SDS011;63344;46.980;28.882;2022-11-27T13:34:46;18.25;;;7.22;;
71856;SDS011;63344;46.980;28.882;2022-11-27T13:39:59;20.55;;;8.00;;
71856;SDS011;63344;46.980;28.882;2022-11-27T13:42:40;23.05;;;8.38;;
71856;SDS011;63344;46.980;28.882;2022-11-27T13:45:18;17.73;;;7.68;;
71856;SDS011;63344;46.980;28.882;2022-11-27T13:47:49;18.27;;;7.63;;
71856;SDS011;63344;46.980;28.882;2022-11-27T13:50:19;15.38;;;6.68;;
71856;SDS011;63344;46.980;28.882;2022-11-27T13:53:00;17.20;;;7.18;;
71856;SDS011;63344;46.980;28.882;2022-11-27T13:58:04;21.08;;;9.00;;
71856;SDS011;63344;46.980;28.882;2022-11-27T14:00:43;17.77;;;7.38;;
71856;SDS011;63344;46.980;28.882;2022-11-27T14:03:26;19.20;;;7.93;;
71856;SDS011;63344;46.980;28.882;2022-11-27T14:05:56;17.10;;;6.50;;
71856;SDS011;63344;46.980;28.882;2022-11-27T14:08:38;18.00;;;7.38;;
71856;SDS011;63344;46.980;28.882;2022-11-27T14:11:26;21.63;;;7.63;;
71856;SDS011;63344;46.980;28.882;2022-11-27T14:14:14;20.65;;;8.25;;
71856;SDS011;63344;46.980;28.882;2022-11-27T14:16:54;19.35;;;8.10;;
71856;SDS011;63344;46.980;28.882;2022-11-27T14:22:01;19.38;;;8.20;;
71856;SDS011;63344;46.980;28.882;2022-11-27T14:24:40;21.50;;;8.68;;
71856;SDS011;63344;46.980;28.882;2022-11-27T14:27:18;17.30;;;8.32;;
71856;SDS011;63344;46.980;28.882;2022-11-27T14:29:54;20.73;;;8.02;;
71856;SDS011;63344;46.980;28.882;2022-11-27T14:32:22;18.92;;;8.73;;
71856;SDS011;63344;46.980;28.882;2022-11-27T14:35:03;20.48;;;9.23;;
71856;SDS011;63344;46.980;28.882;2022-11-27T14:37:31;19.27;;;8.32;;
71856;SDS011;63344;46.980;28.882;2022-11-27T14:39:59;23.90;;;9.25;;
71856;SDS011;63344;46.980;28.882;2022-11-27T14:42:30;19.42;;;8.30;;
71856;SDS011;63344;46.980;28.882;2022-11-27T14:47:41;24.58;;;9.65;;
71856;SDS011;63344;46.980;28.882;2022-11-27T14:50:32;26.05;;;9.63;;
71856;SDS011;63344;46.980;28.882;2022-11-27T14:53:12;22.08;;;9.50;;
71856;SDS011;63344;46.980;28.882;2022-11-27T14:55:40;30.55;;;10.98;;
71856;SDS011;63344;46.980;28.882;2022-11-27T14:58:10;22.95;;;10.00;;
71856;SDS011;63344;46.980;28.882;2022-11-27T15:00:53;26.65;;;10.30;;
71856;SDS011;63344;46.980;28.882;2022-11-27T15:03:37;29.30;;;11.05;;
71856;SDS011;63344;46.980;28.882;2022-11-27T15:06:14;27.65;;;10.93;;
71856;SDS011;63344;46.980;28.882;2022-11-27T15:09:01;27.50;;;11.15;;
71856;SDS011;63344;46.980;28.882;2022-11-27T15:11:53;33.08;;;12.95;;
71856;SDS011;63344;46.980;28.882;2022-11-27T15:14:23;34.97;;;14.10;;
71856;SDS011;63344;46.980;28.882;2022-11-27T15:16:56;30.98;;;12.68;;
71856;SDS011;63344;46.980;28.882;2022-11-27T15:19:43;38.55;;;15.27;;
71856;SDS011;63344;46.980;28.882;2022-11-27T15:22:15;32.97;;;13.52;;
71856;SDS011;63344;46.980;28.882;2022-11-27T15:24:46;26.55;;;11.35;;
71856;SDS011;63344;46.980;28.882;2022-11-27T15:27:29;33.50;;;13.50;;
71856;SDS011;63344;46.980;28.882;2022-11-27T15:32:41;41.60;;;19.15;;
71856;SDS011;63344;46.980;28.882;2022-11-27T15:35:28;39.38;;;18.50;;
71856;SDS011;63344;46.980;28.882;2022-11-27T15:38:08;31.20;;;14.85;;
71856;SDS011;63344;46.980;28.882;2022-11-27T15:40:37;31.85;;;13.45;;
71856;SDS011;63344;46.980;28.882;2022-11-27T15:43:10;37.65;;;15.30;;
71856;SDS011;63344;46.980;28.882;2022-11-27T15:45:41;40.78;;;16.50;;
71856;SDS011;63344;46.980;28.882;2022-11-27T15:48:14;39.15;;;16.77;;
71856;SDS011;63344;46.980;28.882;2022-11-27T15:50:43;41.28;;;17.95;;
71856;SDS011;63344;46.980;28.882;2022-11-27T15:53:19;38.65;;;15.55;;
71856;SDS011;63344;46.980;28.882;2022-11-27T15:55:46;38.92;;;17.27;;
71856;SDS011;63344;46.980;28.882;2022-11-27T15:58:14;42.42;;;15.55;;
71856;SDS011;63344;46.980;28.882;2022-11-27T16:00:44;36.13;;;15.15;;
71856;SDS011;63344;46.980;28.882;2022-11-27T16:03:11;34.47;;;14.73;;
71856;SDS011;63344;46.980;28.882;2022-11-27T16:05:40;38.50;;;15.95;;
71856;SDS011;63344;46.980;28.882;2022-11-27T16:08:08;32.85;;;13.18;;
71856;SDS011;63344;46.980;28.882;2022-11-27T16:10:38;31.98;;;12.35;;
71856;SDS011;63344;46.980;28.882;2022-11-27T16:13:07;33.75;;;12.15;;
71856;SDS011;63344;46.980;28.882;2022-11-27T16:15:34;26.67;;;11.77;;
71856;SDS011;63344;46.980;28.882;2022-11-27T16:18:05;32.28;;;13.02;;
71856;SDS011;63344;46.980;28.882;2022-11-27T16:20:32;27.92;;;11.70;;
71856;SDS011;63344;46.980;28.882;2022-11-27T16:23:00;28.15;;;11.88;;
71856;SDS011;63344;46.980;28.882;2022-11-27T16:25:27;31.95;;;12.43;;
71856;SDS011;63344;46.980;28.882;2022-11-27T16:27:54;30.60;;;13.48;;
71856;SDS011;63344;46.980;28.882;2022-11-27T16:30:28;31.67;;;12.70;;
71856;SDS011;63344;46.980;28.882;2022-11-27T16:32:56;32.97;;;12.63;;
71856;SDS011;63344;46.980;28.882;2022-11-27T16:35:31;28.02;;;13.40;;
71856;SDS011;63344;46.980;28.882;2022-11-27T16:37:59;33.50;;;12.63;;
71856;SDS011;63344;46.980;28.882;2022-11-27T16:40:29;32.63;;;12.60;;
71856;SDS011;63344;46.980;28.882;2022-11-27T16:43:00;30.13;;;13.52;;
71856;SDS011;63344;46.980;28.882;2022-11-27T16:45:27;30.67;;;13.23;;
71856;SDS011;63344;46.980;28.882;2022-11-27T16:47:56;28.83;;;13.75;;
71856;SDS011;63344;46.980;28.882;2022-11-27T16:50:24;31.02;;;13.07;;
71856;SDS011;63344;46.980;28.882;2022-11-27T16:52:55;31.70;;;12.60;;
71856;SDS011;63344;46.980;28.882;2022-11-27T16:55:38;31.77;;;13.75;;
71856;SDS011;63344;46.980;28.882;2022-11-27T16:58:07;28.70;;;12.70;;
71856;SDS011;63344;46.980;28.882;2022-11-27T17:00:40;30.85;;;13.60;;
71856;SDS011;63344;46.980;28.882;2022-11-27T17:03:11;34.85;;;14.55;;
71856;SDS011;63344;46.980;28.882;2022-11-27T17:05:38;35.67;;;14.75;;
71856;SDS011;63344;46.980;28.882;2022-11-27T17:08:07;31.88;;;13.50;;
71856;SDS011;63344;46.980;28.882;2022-11-27T17:10:34;40.10;;;15.70;;
71856;SDS011;63344;46.980;28.882;2022-11-27T17:13:03;38.22;;;15.30;;
71856;SDS011;63344;46.980;28.882;2022-11-27T17:15:37;31.55;;;14.30;;
71856;SDS011;63344;46.980;28.882;2022-11-27T17:18:21;36.90;;;13.82;;
71856;SDS011;63344;46.980;28.882;2022-11-27T17:20:58;27.70;;;12.43;;
71856;SDS011;63344;46.980;28.882;2022-11-27T17:23:30;36.63;;;14.35;;
71856;SDS011;63344;46.980;28.882;2022-11-27T17:25:57;38.47;;;17.00;;